Thunder radar more information blitzortung!


Radar de pluja more information rain snow radar


Visita la nostra xarxa de llocs de meteo:

Template documentation
and downloads

And another site



No particular awareness of the weather is required.    There are no Weather-warnings

Pagina Historial Weather Underground text

Diari Resum Setembre 7, 2017 Unitats:  Imperial    Mètric   Tant
« Previous Dia
SegĂźent Dia »
Diari Setmana Mensual Anual Personalitzada
  Maxima: Minima: Media:
Temperatura: 84 °F 61 °F 74.3 °F
Punt de rosada: 65.8 °F 47.8 °F 54.9 °F
Humitat: 78 % 37 % 52 %
Wind Speed: 10.4 mph 0 mph 3.6 mph
RĂ fegues de vent: 10.4 mph - -
Vent:- - SSW
Pression baro: 30.1 in 29.9 in -
Precipitacions: 0 in    
Historical Graphs
 
 
Dades de taula per Setembre 7, 2017
Temps Temperatura Punt de rosada Pression baro Vent Wind Speed RĂ fegues de vent Humitat Rainfall Rate (Hourly)
00:04 73 °F 65.8 °F 30.1 in Calm     78 % 0 in
00:05 66.2 °F 52 °F 30 in West 2 mph 3 mph 60 % 0 in
00:15 65.7 °F 51.4 °F 30 in WNW 2 mph 4 mph 60 % 0 in
00:25 65.3 °F 50.5 °F 30 in WNW 1 mph 5 mph 59 % 0 in
00:35 64.9 °F 50.4 °F 30 in NW 1 mph 3 mph 59 % 0 in
00:45 64.8 °F 50.2 °F 30 in NNW 2 mph 2 mph 59 % 0 in
00:55 64.4 °F 49.8 °F 30 in West 2 mph 3 mph 59 % 0 in
01:05 64.2 °F 49.6 °F 30 in West 2 mph 3 mph 59 % 0 in
01:15 63.7 °F 49.1 °F 30 in WNW 2 mph 3 mph 59 % 0 in
01:25 63.3 °F 48.7 °F 30 in West 2 mph 4 mph 59 % 0 in
01:35 63 °F 48.4 °F 30 in West 3 mph 3 mph 59 % 0 in
01:45 62.8 °F 48.2 °F 30 in WSW 1 mph 4 mph 59 % 0 in
01:55 62.2 °F 48.6 °F 30 in WSW 1 mph 2 mph 61 % 0 in
02:05 61.9 °F 48.4 °F 30 in WSW 1 mph 4 mph 61 % 0 in
02:15 61.7 °F 48 °F 30 in SW 1 mph 2 mph 61 % 0 in
02:25 61.3 °F 47.8 °F 30 in South 1 mph 2 mph 61 % 0 in
02:35 61.2 °F 48 °F 30 in SSW 2 mph 3 mph 62 % 0 in
02:45 61 °F 47.8 °F 30 in Calm   2 mph 62 % 0 in
02:55 61 °F 47.8 °F 30 in Calm   2 mph 62 % 0 in
03:05 61.2 °F 48.6 °F 30 in Calm   3 mph 63 % 0 in
03:15 61.3 °F 48.6 °F 30 in SW 1 mph 2 mph 63 % 0 in
03:25 61.5 °F 48.7 °F 30.1 in SW 1 mph 2 mph 63 % 0 in
03:35 61.9 °F 49.1 °F 30.1 in SW 2 mph 4 mph 63 % 0 in
03:45 62.8 °F 49.6 °F 30.1 in SW 2 mph 4 mph 62 % 0 in
03:55 63.9 °F 50.5 °F 30.1 in Calm   4 mph 62 % 0 in
04:05 64.4 °F 50.7 °F 30.1 in WSW 2 mph 3 mph 61 % 0 in
04:15 65.8 °F 51.6 °F 30 in SW 2 mph 2 mph 60 % 0 in
04:25 65.8 °F 51.1 °F 30.1 in NNE 3 mph 3 mph 59 % 0 in
04:35 65.7 °F 50.5 °F 30.1 in NE 2 mph 3 mph 58 % 0 in
04:45 66.2 °F 50 °F 30.1 in NE 3 mph 4 mph 56 % 0 in
04:55 67.3 °F 51.1 °F 30.1 in NE 1 mph 3 mph 56 % 0 in
05:05 68.7 °F 52.3 °F 30.1 in SW 1 mph 1 mph 56 % 0 in
05:15 68.9 °F 52.2 °F 30.1 in NNW 1 mph 3 mph 55 % 0 in
05:25 69.3 °F 52 °F 30 in East 1 mph 2 mph 54 % 0 in
05:35 70.5 °F 53.1 °F 30 in NNE 2 mph 2 mph 54 % 0 in
05:45 69.8 °F 51.4 °F 30.1 in NW 1 mph 2 mph 52 % 0 in
05:55 71.4 °F 53.4 °F 30.1 in South 1 mph 3 mph 53 % 0 in
06:05 71.6 °F 53.6 °F 30.1 in WNW 2 mph 3 mph 53 % 0 in
11:05 72 °F 53.4 °F 30.1 in North 2.4 mph 2.4 mph 52 % 0 in
11:10 72.9 °F 53.8 °F 30.1 in ESE 2.9 mph 2.9 mph 51 % 0 in
11:15 72.5 °F 53.2 °F 30.1 in NE 4.6 mph 4.6 mph 51 % 0 in
11:20 72.9 °F 53.8 °F 30.1 in NW 2.3 mph 2.3 mph 51 % 0 in
11:25 73.2 °F 54 °F 30.1 in West 2.3 mph 2.3 mph 51 % 0 in
11:30 73.9 °F 54.1 °F 30.1 in East 4.6 mph 4.6 mph 50 % 0 in
11:35 74.5 °F 54.1 °F 30.1 in NNE 3.5 mph 3.5 mph 49 % 0 in
11:40 75.4 °F 54.9 °F 30.1 in NW 2.3 mph 2.3 mph 49 % 0 in
11:45 76.1 °F 55.6 °F 30.1 in SW 3.8 mph 3.8 mph 49 % 0 in
11:50 75.7 °F 55.2 °F 30.1 in ENE 2.3 mph 2.3 mph 49 % 0 in
11:55 75.6 °F 55 °F 30.1 in WSW 2.4 mph 2.4 mph 49 % 0 in
12:00 75.4 °F 54.3 °F 30.1 in NE 2.6 mph 2.6 mph 48 % 0 in
12:05 75.4 °F 54.9 °F 30.1 in SW 2.3 mph 2.3 mph 49 % 0 in
12:10 75.9 °F 54.1 °F 30.1 in East 2.3 mph 2.3 mph 47 % 0 in
12:15 76.5 °F 55.9 °F 30.1 in WSW 5.8 mph 5.8 mph 49 % 0 in
12:20 77 °F 55.2 °F 30.1 in West 4.7 mph 4.7 mph 47 % 0 in
12:25 77 °F 55.2 °F 30 in SW 4.9 mph 4.9 mph 47 % 0 in
12:30 77 °F 55.2 °F 30 in WSW 4.6 mph 4.7 mph 47 % 0 in
12:35 77.2 °F 54.9 °F 30 in South 2.3 mph 2.4 mph 46 % 0 in
12:40 77.9 °F 55.6 °F 30 in WSW 4.6 mph 4.6 mph 46 % 0 in
12:45 78.4 °F 55.9 °F 30 in WSW 5.8 mph 5.8 mph 46 % 0 in
12:50 77.7 °F 54.7 °F 30 in West 6.9 mph 6.9 mph 45 % 0 in
12:55 78.1 °F 54.3 °F 30 in WSW 5.8 mph 5.8 mph 44 % 0 in
13:00 79 °F 55.2 °F 30 in West 3.6 mph 3.6 mph 44 % 0 in
13:05 79 °F 54.7 °F 30 in South 8.1 mph 8.1 mph 43 % 0 in
13:10 78.6 °F 54.1 °F 30 in SW 5.8 mph 5.8 mph 43 % 0 in
13:15 79 °F 54 °F 30 in South 3.5 mph 3.5 mph 42 % 0 in
13:20 79.9 °F 54.7 °F 30 in SW 4.6 mph 4.6 mph 42 % 0 in
13:25 80.1 °F 54.9 °F 30 in WNW 5.9 mph 5.9 mph 42 % 0 in
13:30 79.5 °F 54.3 °F 30 in SW 4 mph 4 mph 42 % 0 in
13:35 79.7 °F 54 °F 30 in WSW 5.8 mph 5.8 mph 41 % 0 in
13:40 78.4 °F 52.2 °F 30 in East 8.1 mph 8.1 mph 40 % 0 in
13:45 79 °F 53.2 °F 30 in North 5.8 mph 5.8 mph 41 % 0 in
13:50 79.2 °F 53.4 °F 30 in West 5.9 mph 5.9 mph 41 % 0 in
13:55 79.3 °F 53.6 °F 30 in NW 5.8 mph 5.8 mph 41 % 0 in
14:00 79.5 °F 53.8 °F 30 in WSW 4 mph 4 mph 41 % 0 in
14:05 80.2 °F 54.3 °F 30 in WNW 3.8 mph 3.8 mph 41 % 0 in
14:10 80.8 °F 53.4 °F 30 in SSE 2.3 mph 2.3 mph 39 % 0 in
14:15 81.5 °F 54.1 °F 30 in SW 6.9 mph 6.9 mph 39 % 0 in
14:20 81.3 °F 54.7 °F 30 in SW 2.3 mph 2.4 mph 40 % 0 in
14:25 81.3 °F 53.2 °F 30 in West 4.6 mph 4.6 mph 38 % 0 in
14:30 81.3 °F 54 °F 30 in WNW 4.6 mph 4.6 mph 39 % 0 in
14:35 80.8 °F 53.4 °F 30 in East 2.6 mph 2.6 mph 39 % 0 in
14:40 81.5 °F 53.4 °F 30 in ESE 4.6 mph 4.6 mph 38 % 0 in
14:45 82 °F 53.2 °F 30 in SW 2.3 mph 2.3 mph 37 % 0 in
14:50 82.4 °F 54.1 °F 30 in SW 3.5 mph 3.5 mph 38 % 0 in
14:55 83.5 °F 55.9 °F 30 in SW 6.9 mph 6.9 mph 39 % 0 in
15:00 82.6 °F 54.3 °F 30 in SSW 5.8 mph 5.8 mph 38 % 0 in
15:05 82.6 °F 55 °F 30 in NNE 4.6 mph 4.6 mph 39 % 0 in
15:10 81.9 °F 54.5 °F 30 in SW 2.9 mph 2.9 mph 39 % 0 in
15:15 82.9 °F 55.4 °F 30 in SW 3.5 mph 3.5 mph 39 % 0 in
15:20 84 °F 56.5 °F 30 in NW 2.3 mph 2.3 mph 39 % 0 in
15:25 82.8 °F 55.9 °F 29.9 in ESE 4.6 mph 4.6 mph 40 % 0 in
15:30 83.1 °F 56.3 °F 29.9 in SE 3.1 mph 3.3 mph 40 % 0 in
15:35 82.9 °F 56.8 °F 29.9 in SSW 5.8 mph 5.8 mph 41 % 0 in
15:40 83.3 °F 56.5 °F 29.9 in SW 4.6 mph 4.6 mph 40 % 0 in
15:45 83.8 °F 56.8 °F 29.9 in SSW 4.6 mph 4.6 mph 40 % 0 in
15:50 83.7 °F 56.8 °F 29.9 in West 5.8 mph 5.8 mph 40 % 0 in
15:55 84 °F 57 °F 29.9 in SSW 6.9 mph 6.9 mph 40 % 0 in
16:00 83.5 °F 56.7 °F 29.9 in SSW 7.8 mph 7.8 mph 40 % 0 in
16:05 83.8 °F 56.8 °F 29.9 in SW 8.1 mph 8.1 mph 40 % 0 in
16:10 82.8 °F 55.9 °F 29.9 in WSW 10.4 mph 10.4 mph 40 % 0 in
16:15 82 °F 55.2 °F 29.9 in SSW 9.2 mph 9.2 mph 40 % 0 in
16:20 82.2 °F 56.1 °F 29.9 in West 9 mph 9 mph 41 % 0 in
16:25 81.3 °F 55.4 °F 29.9 in SW 10.4 mph 10.4 mph 41 % 0 in
16:30 81.5 °F 56.1 °F 29.9 in SW 5.8 mph 5.8 mph 42 % 0 in
16:35 81.3 °F 55.9 °F 29.9 in SW 5.6 mph 5.6 mph 42 % 0 in
16:40 81.3 °F 55.9 °F 29.9 in SW 5.8 mph 5.8 mph 42 % 0 in
16:45 82.2 °F 56.8 °F 29.9 in WSW 5.8 mph 5.8 mph 42 % 0 in
16:50 82.4 °F 57.7 °F 29.9 in SW 6 mph 6 mph 43 % 0 in
16:55 82.2 °F 57.6 °F 29.9 in SW 4.9 mph 4.9 mph 43 % 0 in
17:00 82.6 °F 57.7 °F 29.9 in SW 4.6 mph 4.6 mph 43 % 0 in
17:05 82.4 °F 57.7 °F 29.9 in SSE 6.9 mph 6.9 mph 43 % 0 in
17:10 81.5 °F 56.8 °F 29.9 in WSW 9.2 mph 9.2 mph 43 % 0 in
17:15 81 °F 56.5 °F 29.9 in SW 6.9 mph 6.9 mph 43 % 0 in
17:20 81.1 °F 57.2 °F 29.9 in SW 6.9 mph 6.9 mph 44 % 0 in
17:25 81.5 °F 57.6 °F 29.9 in South 4.6 mph 4.6 mph 44 % 0 in
17:30 81.3 °F 57.4 °F 29.9 in WNW 6.9 mph 6.9 mph 44 % 0 in
17:35 81.7 °F 57.6 °F 29.9 in WSW 5.4 mph 5.4 mph 44 % 0 in
17:40 81.5 °F 57.6 °F 29.9 in WSW 5.9 mph 5.9 mph 44 % 0 in
17:45 81.1 °F 57.2 °F 29.9 in WSW 4.6 mph 4.6 mph 44 % 0 in
17:50 81.5 °F 57.6 °F 29.9 in ESE 3.5 mph 3.5 mph 44 % 0 in
17:55 81 °F 57.6 °F 29.9 in SW 5.8 mph 5.8 mph 45 % 0 in
18:00 80.2 °F 57.6 °F 29.9 in WSW 5.8 mph 5.8 mph 46 % 0 in
18:05 80.2 °F 57.6 °F 29.9 in SW 5.8 mph 5.8 mph 46 % 0 in
18:10 80.8 °F 57.6 °F 29.9 in South 7.8 mph 7.8 mph 45 % 0 in
18:15 80.8 °F 58.1 °F 29.9 in South 2.9 mph 2.9 mph 46 % 0 in
18:20 80.4 °F 58.3 °F 29.9 in SSW 5.8 mph 5.8 mph 47 % 0 in
18:25 79.7 °F 57.7 °F 29.9 in South 6.9 mph 6.9 mph 47 % 0 in
18:30 79.3 °F 57.4 °F 29.9 in South 4.6 mph 4.6 mph 47 % 0 in
18:35 79.3 °F 57.9 °F 29.9 in WNW 4.6 mph 4.6 mph 48 % 0 in
18:40 78.8 °F 57.4 °F 29.9 in WSW 2.3 mph 2.4 mph 48 % 0 in
18:45 78.4 °F 57.7 °F 29.9 in NE 2.2 mph 2.2 mph 49 % 0 in
18:50 77.7 °F 57 °F 29.9 in WSW 2.4 mph 2.4 mph 49 % 0 in
18:55 77.9 °F 57.7 °F 29.9 in SW 4.6 mph 4.6 mph 50 % 0 in
19:00 77.9 °F 57.7 °F 29.9 in SSW 2.3 mph 2.4 mph 50 % 0 in
19:05 77.7 °F 57.6 °F 29.9 in SW 2.3 mph 2.3 mph 50 % 0 in
19:10 77 °F 57.9 °F 29.9 in NE 3.5 mph   52 % 0 in
19:15 76.6 °F 58.3 °F 29.9 in ESE 2.3 mph 2.3 mph 53 % 0 in
19:20 75.9 °F 59.2 °F 29.9 in ENE 4 mph 4 mph 56 % 0 in
19:25 75.2 °F 59.4 °F 29.9 in East 4.6 mph 4.6 mph 58 % 0 in
19:30 74.8 °F 60.4 °F 29.9 in ENE 5.8 mph 5.8 mph 61 % 0 in
19:35 74.7 °F 60.3 °F 29.9 in ENE 8.1 mph 8.1 mph 61 % 0 in
19:40 74.5 °F 60.1 °F 29.9 in SE 3.5 mph 3.5 mph 61 % 0 in
19:45 74.8 °F 60.4 °F 29.9 in South 4.6 mph 4.6 mph 61 % 0 in
19:50 75 °F 59.2 °F 29.9 in SSW 5.8 mph 5.8 mph 58 % 0 in
19:55 75 °F 59.2 °F 29.9 in WSW 6.9 mph 6.9 mph 58 % 0 in
20:00 74.8 °F 58.6 °F 29.9 in SW 3.8 mph 3.8 mph 57 % 0 in
20:05 74.7 °F 58.5 °F 29.9 in SW 5.8 mph 5.8 mph 57 % 0 in
20:10 74.1 °F 57.9 °F 29.9 in WSW 4.6 mph 4.6 mph 57 % 0 in
20:15 73.8 °F 57 °F 29.9 in SW 5.8 mph 5.8 mph 56 % 0 in
20:20 73.8 °F 57 °F 29.9 in WSW 3.3 mph 3.3 mph 56 % 0 in
20:25 73.8 °F 57 °F 29.9 in SW 3.8 mph 3.8 mph 56 % 0 in
20:31 73.4 °F 57.2 °F 29.9 in WSW 3.5 mph 3.5 mph 57 % 0 in
20:36 73.4 °F 57.2 °F 29.9 in SW 3.6 mph 3.6 mph 57 % 0 in
20:41 73 °F 56.8 °F 30 in SW 3.5 mph 3.5 mph 57 % 0 in
20:46 72.9 °F 56.7 °F 30 in WSW 2.6 mph   57 % 0 in
20:51 72.9 °F 56.7 °F 30 in SW 5.8 mph 5.8 mph 57 % 0 in
20:56 72.5 °F 56.5 °F 30 in SW 2.3 mph 2.4 mph 57 % 0 in
21:01 72.5 °F 56.5 °F 30 in WSW 3.5 mph 3.5 mph 57 % 0 in
21:06 72.3 °F 56.1 °F 30 in West 2.9 mph 2.9 mph 57 % 0 in
21:11 72.1 °F 56.1 °F 30 in SW 2.4 mph 2.4 mph 57 % 0 in
21:16 72 °F 55.9 °F 30 in SW 2.3 mph 2.3 mph 57 % 0 in
21:21 71.8 °F 55.8 °F 30 in WSW 3.5 mph 3.5 mph 57 % 0 in
21:26 71.6 °F 55.9 °F 30 in West 2.3 mph 2.3 mph 58 % 0 in
21:31 71.4 °F 56.3 °F 30 in SW 3.5 mph 3.5 mph 59 % 0 in
21:36 71.2 °F 56.1 °F 30 in WSW 2.3 mph 2.3 mph 59 % 0 in
21:41 71.1 °F 55.9 °F 30 in West 2.3 mph 2.3 mph 59 % 0 in
21:46 70.9 °F 55.8 °F 30 in West 3.5 mph 3.5 mph 59 % 0 in
21:51 70.7 °F 55.8 °F 30 in WSW 2.3 mph 2.4 mph 59 % 0 in
21:56 70.5 °F 55.9 °F 30 in SW 2.3 mph 2.3 mph 60 % 0 in
22:01 70.2 °F 55.6 °F 30 in SW 2.3 mph 2.3 mph 60 % 0 in
22:06 69.8 °F 55.2 °F 30 in SW 2.3 mph 2.3 mph 60 % 0 in
22:11 69.8 °F 55.8 °F 30 in WSW 2.3 mph 2.3 mph 61 % 0 in
22:16 69.6 °F 55.6 °F 30 in SW 3.5 mph 3.5 mph 61 % 0 in
22:21 69.4 °F 55.9 °F 30 in WSW 1.2 mph 1.2 mph 62 % 0 in
22:26 69.3 °F 55.8 °F 30 in WSW 1.4 mph 1.6 mph 62 % 0 in
22:31 69.3 °F 55.8 °F 30 in West 2 mph 2 mph 62 % 0 in
22:36 69.1 °F 55.6 °F 30 in SW 2.4 mph 2.4 mph 62 % 0 in
22:41 69.1 °F 55.6 °F 30 in SW 2.3 mph 2.3 mph 62 % 0 in
22:46 68.9 °F 55.2 °F 30 in WSW 2.3 mph 2.3 mph 62 % 0 in
22:51 68.7 °F 55.6 °F 30 in Calm     63 % 0 in
22:56 68.5 °F 55.4 °F 30 in Calm     63 % 0 in
23:01 68.4 °F 55.2 °F 30 in Calm     63 % 0 in
23:06 68.4 °F 55.2 °F 30 in WSW 1.2 mph   63 % 0 in
23:11 68.2 °F 55 °F 30 in Calm     63 % 0 in
23:16 68.2 °F 55 °F 30 in Calm     63 % 0 in
23:21 68 °F 54.9 °F 30 in Calm     63 % 0 in
23:26 68 °F 54.9 °F 30 in WSW 1.2 mph   63 % 0 in
23:31 68 °F 54.9 °F 30 in WSW 1.2 mph 1.2 mph 63 % 0 in
23:36 68 °F 54.9 °F 30 in WSW 2.4 mph 2.4 mph 63 % 0 in
23:41 68 °F 55.4 °F 30 in WSW 1.2 mph   64 % 0 in
23:46 68 °F 55.4 °F 30 in WSW 1.2 mph   64 % 0 in
23:51 68 °F 55.4 °F 30 in WSW 1.2 mph 1.2 mph 64 % 0 in
23:56 67.8 °F 55.6 °F 30 in WSW 1.2 mph 1.4 mph 65 % 0 in
Meteo Sesrovires
Elogis d' Weather Underground - 3.5 mb

Guio original per  Jim McMurry - jmcmurry@mwt.net Adaptat per a la plantilla per  Wim van der Kuil - Leuven-Template.eu

Trobareu la nostra informacio del temps tambe a:

Weather Underground

AWEKAS